地図

経路データ

SID SEASON NUMBER BASIN SUBBASIN NAME ISO_TIME NATURE LAT LON WMO_WIND WMO_PRES WMO_AGENCY TRACK_TYPE DIST2LAND LANDFALL IFLAG USA_AGENCY USA_ATCF_ID USA_LAT USA_LON USA_RECORD USA_STATUS USA_WIND USA_PRES USA_SSHS USA_R34_NE USA_R34_SE USA_R34_SW USA_R34_NW USA_R50_NE USA_R50_SE USA_R50_SW USA_R50_NW USA_R64_NE USA_R64_SE USA_R64_SW USA_R64_NW USA_POCI USA_ROCI USA_RMW USA_EYE TOKYO_LAT TOKYO_LON TOKYO_GRADE TOKYO_WIND TOKYO_PRES TOKYO_R50_DIR TOKYO_R50_LONG TOKYO_R50_SHORT TOKYO_R30_DIR TOKYO_R30_LONG TOKYO_R30_SHORT TOKYO_LAND CMA_LAT CMA_LON CMA_CAT CMA_WIND CMA_PRES HKO_LAT HKO_LON HKO_CAT HKO_WIND HKO_PRES NEWDELHI_LAT NEWDELHI_LON NEWDELHI_GRADE NEWDELHI_WIND NEWDELHI_PRES NEWDELHI_CI NEWDELHI_DP NEWDELHI_POCI REUNION_LAT REUNION_LON REUNION_TYPE REUNION_WIND REUNION_PRES REUNION_TNUM REUNION_CI REUNION_RMW REUNION_R34_NE REUNION_R34_SE REUNION_R34_SW REUNION_R34_NW REUNION_R50_NE REUNION_R50_SE REUNION_R50_SW REUNION_R50_NW REUNION_R64_NE REUNION_R64_SE REUNION_R64_SW REUNION_R64_NW BOM_LAT BOM_LON BOM_TYPE BOM_WIND BOM_PRES BOM_TNUM BOM_CI BOM_RMW BOM_R34_NE BOM_R34_SE BOM_R34_SW BOM_R34_NW BOM_R50_NE BOM_R50_SE BOM_R50_SW BOM_R50_NW BOM_R64_NE BOM_R64_SE BOM_R64_SW BOM_R64_NW BOM_ROCI BOM_POCI BOM_EYE BOM_POS_METHOD BOM_PRES_METHOD NADI_LAT NADI_LON NADI_CAT NADI_WIND NADI_PRES WELLINGTON_LAT WELLINGTON_LON WELLINGTON_WIND WELLINGTON_PRES DS824_LAT DS824_LON DS824_STAGE DS824_WIND DS824_PRES TD9636_LAT TD9636_LON TD9636_STAGE TD9636_WIND TD9636_PRES TD9635_LAT TD9635_LON TD9635_WIND TD9635_PRES TD9635_ROCI NEUMANN_LAT NEUMANN_LON NEUMANN_CLASS NEUMANN_WIND NEUMANN_PRES MLC_LAT MLC_LON MLC_CLASS MLC_WIND MLC_PRES USA_GUST BOM_GUST BOM_GUST_PER REUNION_GUST REUNION_GUST_PER USA_SEAHGT USA_SEARAD_NE USA_SEARAD_SE USA_SEARAD_SW USA_SEARAD_NW STORM_SPEED STORM_DIR
1996209N12144 1996 58 WP MM IAN 1996-07-27 06:00:00 NR 11.8000 143.700 main 1590 1590 O_____________ jtwc_wp WP111996 11.8000 143.700 20 -1 5 26
1996209N12144 1996 58 WP MM IAN 1996-07-27 09:00:00 NR 12.0200 143.805 main 1609 1609 P_____________ WP111996 12.0200 143.805 22 -1 5 21
1996209N12144 1996 58 WP MM IAN 1996-07-27 12:00:00 NR 12.3000 143.900 main 1640 1640 O_____________ jtwc_wp WP111996 12.3000 143.900 25 -1 7 14
1996209N12144 1996 58 WP MM IAN 1996-07-27 15:00:00 NR 12.6775 143.972 main 1682 1682 P_____________ WP111996 12.6775 143.972 27 -1 8 7
1996209N12144 1996 58 WP MM IAN 1996-07-27 18:00:00 NR 13.1000 144.000 main 1727 1727 O_____________ jtwc_wp WP111996 13.1000 144.000 30 -1 8 0
1996209N12144 1996 58 WP MM IAN 1996-07-27 21:00:00 NR 13.5075 143.980 main 1771 1771 P_____________ WP111996 13.5075 143.980 32 -1 8 353
1996209N12144 1996 58 WP MM IAN 1996-07-28 00:00:00 NR 13.9000 143.900 main 1817 1817 O_____________ jtwc_wp WP111996 13.9000 143.900 35 0 8 345
1996209N12144 1996 58 WP MM IAN 1996-07-28 03:00:00 NR 14.2575 143.765 main 1863 1863 P_____________ WP111996 14.2575 143.765 35 0 8 337
1996209N12144 1996 58 WP MM IAN 1996-07-28 06:00:00 NR 14.6000 143.600 main 1899 1899 O_____________ jtwc_wp WP111996 14.6000 143.600 35 0 7 336
1996209N12144 1996 58 WP MM IAN 1996-07-28 09:00:00 NR 14.9350 143.457 main 1934 1934 P_____________ WP111996 14.9350 143.457 35 0 7 343
1996209N12144 1996 58 WP MM IAN 1996-07-28 12:00:00 NR 15.2400 143.400 main 1963 1950 O__O__________ jtwc_wp WP111996 15.3000 143.300 35 0 15.0000 143.800 TD 25 1006 8 344
1996209N12144 1996 58 WP MM IAN 1996-07-28 15:00:00 NR 15.7292 143.213 main 1950 1936 P__P__________ WP111996 15.7350 143.122 35 0 15.7177 143.396 TD 27 1004 11 337
1996209N12144 1996 58 WP MM IAN 1996-07-28 18:00:00 NR 16.2857 142.943 main 1930 1916 O__O__________ jtwc_wp WP111996 16.2000 142.900 35 0 16.4000 143.000 TD 30 1002 12 332
1996209N12144 1996 58 WP MM IAN 1996-07-28 21:00:00 NR 16.7986 142.633 main 1911 1891 P__P__________ WP111996 16.5748 142.652 35 0 17.0223 142.615 TD 30 1002 13 328
1996209N12144 1996 58 WP MM IAN 1996-07-29 00:00:00 NR 17.3500 142.250 main 1897 1821 O__O__________ jtwc_wp WP111996 17.1000 142.300 35 0 17.6000 142.200 TD 30 1002 15 326
1996209N12144 1996 58 WP MM IAN 1996-07-29 03:00:00 NR 18.0589 141.740 main 1807 1716 P__P__________ WP111996 17.9604 141.766 37 0 18.1575 141.715 TD 30 1002 18 326
1996209N12144 1996 58 WP MM IAN 1996-07-29 06:00:00 NR 18.8500 141.200 main 1705 1613 O__O__________ jtwc_wp WP111996 19.0000 141.200 40 0 18.7000 141.200 TD 30 1002 19 328
1996209N12144 1996 58 WP MM IAN 1996-07-29 09:00:00 NR 19.6349 140.720 main 1613 1506 P__P__________ WP111996 20.0648 140.762 40 0 19.2050 140.677 TD 30 1002 19 334
1996209N12144 1996 58 WP MM IAN 1996-07-29 12:00:00 NR 20.5429 140.314 main 1506 1391 O__O__________ jtwc_wp WP111996 21.1000 140.400 40 0 19.8000 140.200 TD 30 1002 20 340
1996209N12144 1996 58 WP MM IAN 1996-07-29 15:00:00 NR 21.5466 139.987 main 1391 1278 P__P__________ WP111996 22.0248 140.070 40 0 20.5900 139.821 TD 27 1004 21 345
1996209N12144 1996 58 WP MM IAN 1996-07-29 18:00:00 NR 22.5400 139.740 main 1275 1176 O__O__________ jtwc_wp WP111996 22.8000 139.800 40 0 21.5000 139.500 TD 25 1006 19 349
1996209N12144 1996 58 WP MM IAN 1996-07-29 21:00:00 NR 23.3949 139.584 main 1176 1116 P_____________ WP111996 23.3949 139.584 37 0 TD 14 347
1996209N12144 1996 58 WP MM IAN 1996-07-30 00:00:00 NR 23.9000 139.400 main 1116 1057 O_____________ jtwc_wp WP111996 23.9000 139.400 35 0 11 342
1996209N12144 1996 58 WP MM IAN 1996-07-30 03:00:00 NR 24.4650 139.200 main 1046 987 P_____________ WP111996 24.4650 139.200 32 -1 12 342
1996209N12144 1996 58 WP MM IAN 1996-07-30 06:00:00 NR 25.0000 139.000 main 987 938 O_____________ jtwc_wp WP111996 25.0000 139.000 30 -1 11 340
1996209N12144 1996 58 WP MM IAN 1996-07-30 09:00:00 NR 25.4500 138.800 main 938 879 P_____________ WP111996 25.4500 138.800 30 -1 10 338
1996209N12144 1996 58 WP MM IAN 1996-07-30 12:00:00 NR 25.9000 138.600 main 879 820 O_____________ jtwc_wp WP111996 25.9000 138.600 30 -1 10 340
1996209N12144 1996 58 WP MM IAN 1996-07-30 15:00:00 NR 26.4275 138.400 main 820 750 P_____________ WP111996 26.4275 138.400 27 -1 12 342
1996209N12144 1996 58 WP MM IAN 1996-07-30 18:00:00 NR 27.0000 138.200 main 750 680 O_____________ jtwc_wp WP111996 27.0000 138.200 25 -1 12 344
1996209N12144 1996 58 WP MM IAN 1996-07-30 21:00:00 NR 27.5999 138.015 main 680 610 P_____________ WP111996 27.5999 138.015 25 -1 13 344
1996209N12144 1996 58 WP MM IAN 1996-07-31 00:00:00 NR 28.2000 137.800 main 610 538 O_____________ jtwc_wp WP111996 28.2000 137.800 25 -1 13 340
1996209N12144 1996 58 WP MM IAN 1996-07-31 03:00:00 NR 28.7875 137.523 main 538 476 P_____________ WP111996 28.7875 137.523 25 -1 12 334
1996209N12144 1996 58 WP MM IAN 1996-07-31 06:00:00 NR 29.3000 137.200 main 476 425 O_____________ jtwc_wp WP111996 29.3000 137.200 25 -1 11 328
1996209N12144 1996 58 WP MM IAN 1996-07-31 09:00:00 NR 29.6947 136.880 main 425 384 P_____________ WP111996 29.6947 136.880 25 -1 9 319
1996209N12144 1996 58 WP MM IAN 1996-07-31 12:00:00 NR 30.0000 136.500 main 384 346 O_____________ jtwc_wp WP111996 30.0000 136.500 25 -1 9 308
1996209N12144 1996 58 WP MM IAN 1996-07-31 15:00:00 NR 30.2724 136.030 main 346 324 P_____________ WP111996 30.2724 136.030 22 -1 10 300
1996209N12144 1996 58 WP MM IAN 1996-07-31 18:00:00 NR 30.5000 135.500 main 324 288 O_____________ jtwc_wp WP111996 30.5000 135.500 20 -1 10 296
1996209N12144 1996 58 WP MM IAN 1996-07-31 21:00:00 NR 30.7149 134.957 main 288 240 P_____________ WP111996 30.7149 134.957 20 -1 10 293
1996209N12144 1996 58 WP MM IAN 1996-08-01 00:00:00 NR 30.9000 134.400 main 240 207 O_____________ jtwc_wp WP111996 30.9000 134.400 20 -1 10 290
1996209N12144 1996 58 WP MM IAN 1996-08-01 03:00:00 NR 31.0579 133.848 main 193 169 P_____________ WP111996 31.0579 133.848 17 -1 10 288
1996209N12144 1996 58 WP MM IAN 1996-08-01 06:00:00 NR 31.2000 133.300 main 169 O_____________ jtwc_wp WP111996 31.2000 133.300 15 -1 10 287

デジタル台風データ・検索

IBTrACS Databaseについて

本データベースは、米国NOAAが公開する1842年以降の世界の熱帯低気圧のベストトラックデータアーカイブInternational Best Track Archive for Climate Stewardship (IBTrACS)を、ウェブで閲覧しやすい形式に変換したものです。

最終更新日:2021-10-08